Time;durP1;ratioP1;P1;durP2;ratioP2;P2;SDS_P1;SDS_P2;PMS_P1;PMS_P2;Temp;Humidity;BMP_temperature;BMP_pressure;BME280_temperature;BME280_humidity;BME280_pressure;Samples;Min_cycle;Max_cycle;Signal;HPM_P1;HPM_P2
2022/01/10 00:02:15;;;;;;;20.83;15.77;;;;;;;;;;5066580;28;20211;-61
2022/01/10 00:04:43;;;;;;;17.20;15.40;;;;;;;;;;5073153;28;20315;-61
2022/01/10 00:07:11;;;;;;;11.80;10.03;;;;;;;;;;5076376;28;20237;-63
2022/01/10 00:09:38;;;;;;;9.87;8.13;;;;;;;;;;5068851;28;20207;-61
2022/01/10 00:12:06;;;;;;;7.40;5.97;;;;;;;;;;5070132;28;20230;-63
2022/01/10 00:14:35;;;;;;;6.23;5.63;;;;;;;;;;5070724;28;20270;-61
2022/01/10 00:17:04;;;;;;;9.57;7.63;;;;;;;;;;5064297;28;20228;-61
2022/01/10 00:19:31;;;;;;;9.63;8.57;;;;;;;;;;5096632;27;20303;-61
2022/01/10 00:21:58;;;;;;;10.07;7.80;;;;;;;;;;5096371;27;20654;-64
2022/01/10 00:24:26;;;;;;;7.33;6.20;;;;;;;;;;5062492;28;20223;-63
2022/01/10 00:26:53;;;;;;;6.70;6.00;;;;;;;;;;5096306;27;20223;-63
2022/01/10 00:29:21;;;;;;;7.93;5.93;;;;;;;;;;5093975;28;20211;-61
2022/01/10 00:31:48;;;;;;;6.97;5.57;;;;;;;;;;5080287;28;20873;-62
2022/01/10 00:34:16;;;;;;;10.53;6.43;;;;;;;;;;5062680;28;20207;-61
2022/01/10 00:36:43;;;;;;;6.90;6.17;;;;;;;;;;5065197;28;20223;-61
2022/01/10 00:39:11;;;;;;;8.27;6.60;;;;;;;;;;5094540;27;20242;-62
2022/01/10 00:41:38;;;;;;;9.63;6.50;;;;;;;;;;5093913;28;20619;-61
2022/01/10 00:44:05;;;;;;;8.33;6.47;;;;;;;;;;5062124;28;20209;-63
2022/01/10 00:46:33;;;;;;;7.93;6.50;;;;;;;;;;5100181;27;20227;-62
2022/01/10 00:49:01;;;;;;;7.53;6.33;;;;;;;;;;5106356;28;20582;-63
2022/01/10 00:51:29;;;;;;;8.93;6.67;;;;;;;;;;5104754;27;20212;-61
2022/01/10 00:53:57;;;;;;;7.73;6.60;;;;;;;;;;5103217;27;20200;-62
2022/01/10 00:56:25;;;;;;;7.40;6.27;;;;;;;;;;5066522;28;20208;-63
2022/01/10 00:58:52;;;;;;;9.57;7.13;;;;;;;;;;5097591;28;20207;-63
2022/01/10 01:01:20;;;;;;;9.63;7.20;;;;;;;;;;5075849;28;20201;-62
2022/01/10 01:03:47;;;;;;;9.20;6.57;;;;;;;;;;5065611;28;20226;-63
2022/01/10 01:06:16;;;;;;;12.23;8.50;;;;;;;;;;5110934;27;20228;-61
2022/01/10 01:08:44;;;;;;;12.27;8.17;;;;;;;;;;5104249;27;20200;-62
2022/01/10 01:16:18;;;;;;;7.90;6.57;;;;;;;;;;5072397;28;20858;-61
2022/01/10 01:26:32;;;;;;;12.60;7.30;;;;;;;;;;5071394;28;20254;-61
2022/01/10 01:28:59;;;;;;;9.77;7.47;;;;;;;;;;5059257;28;20209;-61
2022/01/10 01:31:27;;;;;;;9.03;7.53;;;;;;;;;;5069546;28;20250;-61
2022/01/10 01:33:54;;;;;;;11.33;7.57;;;;;;;;;;5091885;28;20207;-61
2022/01/10 01:36:24;;;;;;;9.80;7.00;;;;;;;;;;5077123;28;20230;-62
2022/01/10 01:38:52;;;;;;;10.13;6.60;;;;;;;;;;5066792;28;20567;-61
2022/01/10 01:43:48;;;;;;;11.43;6.53;;;;;;;;;;5070066;28;20204;-63
2022/01/10 01:46:16;;;;;;;11.30;6.40;;;;;;;;;;5052056;28;20307;-63
2022/01/10 01:48:44;;;;;;;9.83;6.23;;;;;;;;;;5058300;28;20247;-63
2022/01/10 01:51:12;;;;;;;10.37;5.73;;;;;;;;;;5056448;28;20728;-63
2022/01/10 01:53:39;;;;;;;6.47;5.43;;;;;;;;;;5070417;28;20198;-63
2022/01/10 01:56:07;;;;;;;9.90;6.57;;;;;;;;;;5059883;28;20204;-61
2022/01/10 01:58:36;;;;;;;6.67;4.53;;;;;;;;;;5061299;28;20218;-62
2022/01/10 02:01:04;;;;;;;7.43;5.03;;;;;;;;;;5059487;28;20211;-63
2022/01/10 02:03:38;;;;;;;6.53;5.30;;;;;;;;;;5060438;28;20757;-62
2022/01/10 02:06:06;;;;;;;9.13;5.73;;;;;;;;;;5088590;27;20233;-63
2022/01/10 02:08:34;;;;;;;11.87;6.27;;;;;;;;;;5076927;28;20220;-61
2022/01/10 02:11:02;;;;;;;8.90;6.60;;;;;;;;;;5059772;28;20850;-61
2022/01/10 02:13:30;;;;;;;8.27;6.67;;;;;;;;;;5060366;28;20655;-61
2022/01/10 02:16:01;;;;;;;10.23;6.57;;;;;;;;;;5070556;28;20211;-61
2022/01/10 02:18:28;;;;;;;8.40;6.53;;;;;;;;;;5061101;28;20228;-61
2022/01/10 02:21:01;;;;;;;9.87;7.33;;;;;;;;;;5075267;28;20212;-62
2022/01/10 02:23:29;;;;;;;8.07;5.63;;;;;;;;;;5090323;27;20201;-63
2022/01/10 02:25:57;;;;;;;8.93;6.40;;;;;;;;;;5061421;28;20222;-61
2022/01/10 02:28:25;;;;;;;7.83;5.97;;;;;;;;;;5054267;28;20231;-61
2022/01/10 02:30:56;;;;;;;7.90;5.63;;;;;;;;;;5068765;28;20272;-61
2022/01/10 02:33:24;;;;;;;7.13;6.30;;;;;;;;;;5082410;28;20294;-63
2022/01/10 02:36:02;;;;;;;8.73;6.37;;;;;;;;;;5074926;28;20342;-63
2022/01/10 02:38:30;;;;;;;7.93;5.33;;;;;;;;;;5055935;28;20235;-61
2022/01/10 02:40:58;;;;;;;7.80;6.00;;;;;;;;;;5058476;28;20205;-62
2022/01/10 02:43:26;;;;;;;9.93;6.60;;;;;;;;;;5058828;28;20580;-61
2022/01/10 02:45:55;;;;;;;7.53;5.43;;;;;;;;;;5071668;28;20235;-63
2022/01/10 02:48:23;;;;;;;8.40;5.37;;;;;;;;;;5058384;28;20243;-61
2022/01/10 02:50:50;;;;;;;7.83;5.27;;;;;;;;;;5061213;28;20208;-61
2022/01/10 02:53:18;;;;;;;8.30;4.37;;;;;;;;;;5052483;28;20336;-62
2022/01/10 02:55:45;;;;;;;7.03;4.10;;;;;;;;;;5056257;28;20211;-61
2022/01/10 02:58:13;;;;;;;8.43;4.43;;;;;;;;;;5055680;28;20231;-63
2022/01/10 03:00:40;;;;;;;5.87;4.47;;;;;;;;;;5072818;28;20218;-63
2022/01/10 03:03:08;;;;;;;7.03;4.87;;;;;;;;;;5082888;27;20216;-62
2022/01/10 03:05:35;;;;;;;7.33;4.97;;;;;;;;;;5067796;28;22685;-62
2022/01/10 03:08:03;;;;;;;6.63;5.20;;;;;;;;;;5060786;28;20309;-61
2022/01/10 03:10:31;;;;;;;8.10;5.40;;;;;;;;;;5048437;28;20212;-62
2022/01/10 03:12:59;;;;;;;6.63;5.03;;;;;;;;;;5054623;28;20225;-62
2022/01/10 03:15:27;;;;;;;7.97;5.53;;;;;;;;;;5050448;28;20216;-62
2022/01/10 03:17:54;;;;;;;6.47;5.00;;;;;;;;;;5054465;28;20231;-62
2022/01/10 03:20:23;;;;;;;11.17;5.93;;;;;;;;;;5059010;28;20264;-63
2022/01/10 03:22:52;;;;;;;7.37;4.97;;;;;;;;;;5063072;28;20204;-63
2022/01/10 03:25:19;;;;;;;10.10;5.57;;;;;;;;;;5056796;28;20254;-63
2022/01/10 03:27:47;;;;;;;6.43;4.90;;;;;;;;;;5087786;27;20269;-63
2022/01/10 03:30:18;;;;;;;9.67;4.97;;;;;;;;;;5052342;28;20209;-63
2022/01/10 03:32:47;;;;;;;8.23;4.53;;;;;;;;;;5063349;28;20615;-61
2022/01/10 03:35:15;;;;;;;6.60;4.37;;;;;;;;;;5071633;28;20215;-62
2022/01/10 03:37:42;;;;;;;4.73;4.23;;;;;;;;;;5074534;28;20223;-63
2022/01/10 03:40:10;;;;;;;8.00;3.83;;;;;;;;;;5090339;27;20275;-61
2022/01/10 03:42:37;;;;;;;12.13;3.73;;;;;;;;;;5063614;28;20219;-61
2022/01/10 03:45:05;;;;;;;6.07;3.73;;;;;;;;;;5072189;28;20271;-61
2022/01/10 03:47:33;;;;;;;5.00;3.97;;;;;;;;;;5056417;28;20865;-61
2022/01/10 03:50:00;;;;;;;6.17;3.80;;;;;;;;;;5056872;28;20204;-61
2022/01/10 03:52:28;;;;;;;8.57;4.93;;;;;;;;;;5086017;28;20206;-62
2022/01/10 03:54:55;;;;;;;9.60;5.73;;;;;;;;;;5058669;28;20751;-63
2022/01/10 03:57:23;;;;;;;9.87;4.70;;;;;;;;;;5056252;28;20266;-61
2022/01/10 03:59:50;;;;;;;8.13;4.37;;;;;;;;;;5057905;28;20205;-61
2022/01/10 04:02:18;;;;;;;9.57;4.40;;;;;;;;;;5087592;27;20614;-61
2022/01/10 04:04:46;;;;;;;11.43;3.97;;;;;;;;;;5055815;28;20208;-61
2022/01/10 04:07:16;;;;;;;11.10;4.27;;;;;;;;;;5074974;28;20259;-62
2022/01/10 04:09:44;;;;;;;5.43;3.73;;;;;;;;;;5057175;28;20899;-61
2022/01/10 04:12:11;;;;;;;9.30;4.17;;;;;;;;;;5061363;28;20200;-61
2022/01/10 04:14:38;;;;;;;9.93;4.23;;;;;;;;;;5053551;28;20215;-63
2022/01/10 04:17:06;;;;;;;13.03;6.60;;;;;;;;;;5056806;28;20281;-61
2022/01/10 04:19:34;;;;;;;8.40;5.17;;;;;;;;;;5074282;28;20231;-62
2022/01/10 04:22:03;;;;;;;9.77;5.07;;;;;;;;;;5082196;27;20209;-61
2022/01/10 04:24:31;;;;;;;6.80;4.73;;;;;;;;;;5050013;28;20236;-61
2022/01/10 04:26:58;;;;;;;11.37;6.10;;;;;;;;;;5067090;28;20297;-62
2022/01/10 04:29:25;;;;;;;8.07;4.40;;;;;;;;;;5052752;28;20215;-61
2022/01/10 04:31:53;;;;;;;7.63;4.13;;;;;;;;;;5053663;28;20694;-61
2022/01/10 04:34:20;;;;;;;7.97;4.20;;;;;;;;;;5052012;28;20222;-63
2022/01/10 04:36:48;;;;;;;7.00;4.33;;;;;;;;;;5051579;28;20225;-62
2022/01/10 04:39:15;;;;;;;9.87;4.73;;;;;;;;;;5054219;28;20247;-61
2022/01/10 04:41:43;;;;;;;8.17;4.33;;;;;;;;;;5047924;28;20278;-61
2022/01/10 04:44:10;;;;;;;5.83;4.20;;;;;;;;;;5054240;28;20235;-63
2022/01/10 04:46:37;;;;;;;8.53;5.13;;;;;;;;;;5050379;28;20294;-61
2022/01/10 04:49:08;;;;;;;8.83;5.67;;;;;;;;;;5050469;28;20283;-63
2022/01/10 04:51:38;;;;;;;9.20;5.93;;;;;;;;;;5052887;28;20327;-62
2022/01/10 04:54:05;;;;;;;10.70;6.43;;;;;;;;;;5050772;28;20208;-62
2022/01/10 04:56:34;;;;;;;9.63;6.73;;;;;;;;;;5063704;28;20221;-63
2022/01/10 04:59:01;;;;;;;12.17;8.47;;;;;;;;;;5082740;28;20201;-61
2022/01/10 05:01:29;;;;;;;32.97;19.00;;;;;;;;;;5103386;27;20204;-63
2022/01/10 05:03:56;;;;;;;17.17;10.73;;;;;;;;;;5083966;28;20208;-63
2022/01/10 05:06:24;;;;;;;11.53;8.10;;;;;;;;;;5087562;28;20220;-61
2022/01/10 05:08:51;;;;;;;18.27;8.70;;;;;;;;;;5090236;28;20208;-61
2022/01/10 05:11:20;;;;;;;12.40;9.07;;;;;;;;;;5064505;28;20224;-61
2022/01/10 05:13:47;;;;;;;17.67;10.83;;;;;;;;;;5082695;28;20201;-66
2022/01/10 05:16:16;;;;;;;13.77;10.57;;;;;;;;;;5055094;28;20211;-61
2022/01/10 05:18:44;;;;;;;21.13;9.90;;;;;;;;;;5054159;28;20224;-61
2022/01/10 05:21:13;;;;;;;25.43;15.00;;;;;;;;;;5065180;28;20215;-62
2022/01/10 05:23:40;;;;;;;23.30;14.00;;;;;;;;;;5058841;28;20610;-61
2022/01/10 05:26:07;;;;;;;13.97;9.90;;;;;;;;;;5059273;28;20232;-61
2022/01/10 05:28:35;;;;;;;18.33;9.93;;;;;;;;;;5094555;27;20246;-61
2022/01/10 05:31:03;;;;;;;18.60;11.37;;;;;;;;;;5098220;28;20246;-63
2022/01/10 05:33:30;;;;;;;18.00;9.63;;;;;;;;;;5050235;28;20320;-61
2022/01/10 05:35:58;;;;;;;17.83;10.80;;;;;;;;;;5060483;28;20258;-61
2022/01/10 05:38:25;;;;;;;18.00;10.07;;;;;;;;;;5061331;28;20229;-62
2022/01/10 05:40:53;;;;;;;15.17;9.77;;;;;;;;;;5092185;28;20621;-61
2022/01/10 05:43:20;;;;;;;19.10;9.97;;;;;;;;;;5102811;28;20202;-61
2022/01/10 05:45:48;;;;;;;14.90;9.60;;;;;;;;;;5061386;28;20215;-61
2022/01/10 05:48:21;;;;;;;19.30;9.63;;;;;;;;;;5098326;28;20230;-62
2022/01/10 05:50:49;;;;;;;15.83;9.70;;;;;;;;;;5066807;28;20251;-61
2022/01/10 05:53:17;;;;;;;17.23;9.33;;;;;;;;;;5077264;28;20654;-62
2022/01/10 05:55:44;;;;;;;18.70;11.17;;;;;;;;;;5065210;28;20257;-61
2022/01/10 05:58:11;;;;;;;15.00;8.80;;;;;;;;;;5060381;28;20213;-61
2022/01/10 06:00:39;;;;;;;11.73;7.67;;;;;;;;;;5081672;28;20204;-61
2022/01/10 06:03:07;;;;;;;12.53;8.03;;;;;;;;;;5065323;28;20201;-61
2022/01/10 06:05:39;;;;;;;14.37;8.83;;;;;;;;;;5063415;28;20677;-62
2022/01/10 06:08:08;;;;;;;16.60;8.50;;;;;;;;;;5068981;28;20223;-61
2022/01/10 06:10:36;;;;;;;16.60;9.43;;;;;;;;;;5078029;28;20565;-61
2022/01/10 06:13:03;;;;;;;25.47;11.73;;;;;;;;;;5062290;28;20517;-61
2022/01/10 06:15:31;;;;;;;22.07;10.87;;;;;;;;;;5061900;28;20209;-62
2022/01/10 06:17:58;;;;;;;16.43;9.93;;;;;;;;;;5090951;28;20223;-61
2022/01/10 06:20:26;;;;;;;16.80;9.20;;;;;;;;;;5103912;28;20214;-61
2022/01/10 06:22:53;;;;;;;18.73;12.90;;;;;;;;;;5096510;28;20216;-61
2022/01/10 06:25:23;;;;;;;17.63;11.80;;;;;;;;;;5088194;28;20215;-61
2022/01/10 06:27:51;;;;;;;16.30;9.77;;;;;;;;;;5067567;28;20289;-60
2022/01/10 06:30:18;;;;;;;18.20;10.43;;;;;;;;;;5066654;28;20205;-61
2022/01/10 06:32:45;;;;;;;18.20;11.03;;;;;;;;;;5073733;28;20663;-63
2022/01/10 06:35:13;;;;;;;23.87;11.30;;;;;;;;;;5067604;28;20211;-61
2022/01/10 06:37:41;;;;;;;19.87;11.10;;;;;;;;;;5067443;28;20225;-62
2022/01/10 06:40:10;;;;;;;21.00;11.70;;;;;;;;;;5068828;28;20217;-61
2022/01/10 06:42:37;;;;;;;19.63;10.60;;;;;;;;;;5077057;28;20624;-63
2022/01/10 06:45:05;;;;;;;24.63;11.80;;;;;;;;;;5064478;28;20686;-62
2022/01/10 06:47:32;;;;;;;24.93;11.93;;;;;;;;;;5086983;28;20282;-61
2022/01/10 06:50:00;;;;;;;17.53;10.23;;;;;;;;;;5070267;28;20592;-61
2022/01/10 06:52:27;;;;;;;13.33;9.83;;;;;;;;;;5077889;28;20196;-63
2022/01/10 06:54:54;;;;;;;16.93;9.63;;;;;;;;;;5076867;28;20254;-62
2022/01/10 06:57:22;;;;;;;22.43;10.40;;;;;;;;;;5100765;28;20220;-62
2022/01/10 06:59:49;;;;;;;16.27;9.97;;;;;;;;;;5083579;28;20197;-61
2022/01/10 07:02:17;;;;;;;19.67;10.83;;;;;;;;;;5067552;28;20197;-62
2022/01/10 07:04:45;;;;;;;18.67;10.37;;;;;;;;;;5060121;28;20208;-61
2022/01/10 07:07:12;;;;;;;18.20;10.90;;;;;;;;;;5079919;28;20232;-61
2022/01/10 07:09:40;;;;;;;21.60;11.03;;;;;;;;;;5071114;28;20274;-61
2022/01/10 07:12:08;;;;;;;20.80;11.00;;;;;;;;;;5071191;28;20205;-61
2022/01/10 07:14:36;;;;;;;19.13;11.37;;;;;;;;;;5069640;28;20248;-62
2022/01/10 07:17:04;;;;;;;34.87;15.67;;;;;;;;;;5075633;28;20224;-61
2022/01/10 07:19:31;;;;;;;36.17;16.60;;;;;;;;;;5092272;27;20456;-61
2022/01/10 07:21:59;;;;;;;26.47;13.67;;;;;;;;;;5103648;27;20740;-61
2022/01/10 07:24:26;;;;;;;31.63;16.43;;;;;;;;;;5076899;28;20200;-61
2022/01/10 07:26:54;;;;;;;22.43;11.93;;;;;;;;;;5065903;28;20232;-61
2022/01/10 07:29:21;;;;;;;17.40;10.57;;;;;;;;;;5065844;28;20697;-61
2022/01/10 07:31:49;;;;;;;16.90;10.37;;;;;;;;;;5094940;27;20280;-61
2022/01/10 07:34:16;;;;;;;17.90;10.67;;;;;;;;;;5069165;28;21810;-61
2022/01/10 07:36:44;;;;;;;16.40;9.43;;;;;;;;;;5068740;28;20236;-61
2022/01/10 07:39:11;;;;;;;16.67;9.87;;;;;;;;;;5067616;28;20226;-63
2022/01/10 07:41:45;;;;;;;24.73;11.80;;;;;;;;;;5064511;28;20205;-61
2022/01/10 07:44:13;;;;;;;21.63;10.47;;;;;;;;;;5070249;28;20648;-61
2022/01/10 07:46:40;;;;;;;14.53;9.57;;;;;;;;;;5071002;28;21458;-61
2022/01/10 07:49:08;;;;;;;12.40;9.03;;;;;;;;;;5100960;27;20200;-62
2022/01/10 07:51:35;;;;;;;13.90;9.30;;;;;;;;;;5098461;27;20215;-61
2022/01/10 07:54:03;;;;;;;19.40;9.97;;;;;;;;;;5075526;28;20223;-61
2022/01/10 07:56:30;;;;;;;13.57;9.10;;;;;;;;;;5102645;27;20219;-61
2022/01/10 07:58:57;;;;;;;14.40;8.47;;;;;;;;;;5060441;28;20205;-61
2022/01/10 08:01:25;;;;;;;18.87;9.77;;;;;;;;;;5069627;28;20205;-61
2022/01/10 08:03:53;;;;;;;15.23;9.00;;;;;;;;;;5065830;28;20205;-61
2022/01/10 08:06:21;;;;;;;12.57;8.30;;;;;;;;;;5083115;28;20228;-61
2022/01/10 08:08:48;;;;;;;20.57;9.97;;;;;;;;;;5093083;27;20204;-61
2022/01/10 08:11:16;;;;;;;17.17;10.90;;;;;;;;;;5058857;28;20193;-61
2022/01/10 08:13:43;;;;;;;19.27;10.67;;;;;;;;;;5077687;28;20201;-61
2022/01/10 08:16:11;;;;;;;14.67;9.67;;;;;;;;;;5064064;28;20238;-61
2022/01/10 08:18:38;;;;;;;16.13;9.73;;;;;;;;;;5076154;28;20218;-61
2022/01/10 08:21:06;;;;;;;17.47;9.93;;;;;;;;;;5057732;28;20209;-63
2022/01/10 08:23:34;;;;;;;25.40;12.70;;;;;;;;;;5085696;27;20267;-61
2022/01/10 08:26:03;;;;;;;20.10;11.80;;;;;;;;;;5062662;28;20236;-63
2022/01/10 08:28:36;;;;;;;16.97;12.60;;;;;;;;;;5081634;28;20225;-62
2022/01/10 08:31:03;;;;;;;21.50;13.50;;;;;;;;;;5063477;28;20251;-63
2022/01/10 08:33:31;;;;;;;20.53;13.07;;;;;;;;;;5059112;28;20608;-63
2022/01/10 08:35:59;;;;;;;18.90;12.13;;;;;;;;;;5068610;28;20661;-62
2022/01/10 08:38:26;;;;;;;22.20;11.17;;;;;;;;;;5094280;27;20547;-61
2022/01/10 08:40:54;;;;;;;20.60;12.80;;;;;;;;;;5086267;28;20597;-61
2022/01/10 08:43:21;;;;;;;17.43;12.93;;;;;;;;;;5069538;28;20235;-62
2022/01/10 08:45:49;;;;;;;22.13;13.60;;;;;;;;;;5082667;28;21262;-62
2022/01/10 08:48:16;;;;;;;18.07;10.97;;;;;;;;;;5068373;28;20231;-61
2022/01/10 08:50:45;;;;;;;35.17;18.07;;;;;;;;;;5074536;28;20207;-61
2022/01/10 08:53:13;;;;;;;21.57;14.17;;;;;;;;;;5072949;28;20647;-61
2022/01/10 08:55:40;;;;;;;13.40;9.33;;;;;;;;;;5093062;28;20209;-61
2022/01/10 08:58:07;;;;;;;10.00;7.77;;;;;;;;;;5074769;28;20226;-61
2022/01/10 09:00:35;;;;;;;14.43;8.97;;;;;;;;;;5067116;28;20266;-61
2022/01/10 09:03:03;;;;;;;17.33;11.97;;;;;;;;;;5102313;27;20209;-61
2022/01/10 09:05:32;;;;;;;16.87;10.30;;;;;;;;;;5064649;28;20244;-62
2022/01/10 09:08:01;;;;;;;14.53;9.77;;;;;;;;;;5071337;28;20225;-62
2022/01/10 09:10:29;;;;;;;16.43;11.17;;;;;;;;;;5090061;28;20270;-63
2022/01/10 09:12:59;;;;;;;13.57;9.03;;;;;;;;;;5058594;28;20332;-60
2022/01/10 09:15:27;;;;;;;10.57;8.07;;;;;;;;;;5095575;28;20206;-61
2022/01/10 09:17:54;;;;;;;9.40;8.37;;;;;;;;;;5076642;28;20307;-62
2022/01/10 09:20:22;;;;;;;12.27;8.30;;;;;;;;;;5061591;28;20212;-61
2022/01/10 09:22:50;;;;;;;11.77;8.00;;;;;;;;;;5066881;28;20685;-61
2022/01/10 09:25:17;;;;;;;13.37;9.53;;;;;;;;;;5058361;28;20659;-61
2022/01/10 09:27:44;;;;;;;14.40;8.17;;;;;;;;;;5086529;28;20349;-62
2022/01/10 09:30:12;;;;;;;9.57;7.60;;;;;;;;;;5074802;28;20675;-63
2022/01/10 09:32:40;;;;;;;10.07;7.30;;;;;;;;;;5067358;28;20211;-63
2022/01/10 09:35:08;;;;;;;11.63;6.63;;;;;;;;;;5099851;28;20255;-63
2022/01/10 09:37:35;;;;;;;11.77;7.20;;;;;;;;;;5063612;28;20244;-62
2022/01/10 09:40:05;;;;;;;9.13;6.90;;;;;;;;;;5093644;28;20278;-61
2022/01/10 09:42:33;;;;;;;8.77;6.33;;;;;;;;;;5056693;28;20676;-63
2022/01/10 09:45:05;;;;;;;11.30;6.27;;;;;;;;;;5057704;28;20647;-63
2022/01/10 09:47:33;;;;;;;8.50;5.73;;;;;;;;;;5062003;28;20217;-61
2022/01/10 09:50:06;;;;;;;8.67;5.97;;;;;;;;;;5061637;28;20193;-61
2022/01/10 09:52:34;;;;;;;6.97;5.23;;;;;;;;;;5094107;28;20232;-61
2022/01/10 09:55:01;;;;;;;11.93;6.40;;;;;;;;;;5063650;28;20205;-61
2022/01/10 09:57:29;;;;;;;19.53;12.60;;;;;;;;;;5064948;28;20643;-61
2022/01/10 09:59:57;;;;;;;27.00;17.70;;;;;;;;;;5097558;28;20690;-61
2022/01/10 10:02:34;;;;;;;13.77;8.57;;;;;;;;;;5096896;28;20201;-63
2022/01/10 10:05:04;;;;;;;13.20;7.87;;;;;;;;;;5084222;28;20295;-63
2022/01/10 10:07:32;;;;;;;13.00;9.43;;;;;;;;;;5105180;28;20297;-63
2022/01/10 10:10:07;;;;;;;10.13;6.67;;;;;;;;;;5078262;28;20198;-63
2022/01/10 10:12:35;;;;;;;18.17;11.73;;;;;;;;;;5093339;28;20205;-62
2022/01/10 10:15:07;;;;;;;8.20;6.40;;;;;;;;;;5054989;28;20206;-62
2022/01/10 10:17:36;;;;;;;7.30;5.97;;;;;;;;;;5090285;28;20228;-62
2022/01/10 10:20:15;;;;;;;8.03;5.63;;;;;;;;;;5097937;27;20202;-61
2022/01/10 10:23:04;;;;;;;6.50;5.50;;;;;;;;;;5080021;28;20212;-62
2022/01/10 10:25:33;;;;;;;8.40;5.03;;;;;;;;;;5084535;28;20682;-61
2022/01/10 10:28:02;;;;;;;9.20;6.00;;;;;;;;;;5068707;28;20232;-62
2022/01/10 10:30:30;;;;;;;10.60;5.97;;;;;;;;;;5066184;28;20224;-61
2022/01/10 10:33:10;;;;;;;11.73;5.63;;;;;;;;;;5097774;27;20205;-61
2022/01/10 10:35:38;;;;;;;9.07;5.70;;;;;;;;;;5088740;28;20209;-63
2022/01/10 10:38:06;;;;;;;9.80;5.50;;;;;;;;;;5060889;28;20224;-61
2022/01/10 10:40:39;;;;;;;9.70;5.70;;;;;;;;;;5078037;28;20258;-62
2022/01/10 10:43:07;;;;;;;8.83;5.03;;;;;;;;;;5073275;28;20204;-62
2022/01/10 10:45:35;;;;;;;8.07;5.50;;;;;;;;;;5095046;27;20281;-61
2022/01/10 10:48:06;;;;;;;9.53;5.20;;;;;;;;;;5070743;28;20237;-62
2022/01/10 10:50:44;;;;;;;8.93;6.57;;;;;;;;;;5065549;28;20250;-62
2022/01/10 10:53:13;;;;;;;10.93;6.90;;;;;;;;;;5071858;28;20207;-63
2022/01/10 10:55:42;;;;;;;10.93;7.57;;;;;;;;;;5064906;28;20208;-63
2022/01/10 10:58:09;;;;;;;8.77;7.13;;;;;;;;;;5083772;28;20220;-63
2022/01/10 11:00:37;;;;;;;13.20;6.63;;;;;;;;;;5095416;27;20435;-63
2022/01/10 11:03:05;;;;;;;13.17;7.57;;;;;;;;;;5067949;28;20212;-63
2022/01/10 11:05:33;;;;;;;15.50;10.13;;;;;;;;;;5083551;28;20576;-63
2022/01/10 11:08:01;;;;;;;10.47;7.03;;;;;;;;;;5071625;28;20228;-63
2022/01/10 11:10:29;;;;;;;14.77;7.97;;;;;;;;;;5098775;27;20559;-64
2022/01/10 11:12:59;;;;;;;11.40;5.97;;;;;;;;;;5067473;28;20201;-61
2022/01/10 11:15:26;;;;;;;10.17;5.87;;;;;;;;;;5077729;28;20201;-62
2022/01/10 11:17:55;;;;;;;9.53;5.40;;;;;;;;;;5097577;27;20224;-61
2022/01/10 11:20:29;;;;;;;11.53;6.50;;;;;;;;;;5068659;28;20224;-61
2022/01/10 11:22:58;;;;;;;14.93;6.10;;;;;;;;;;5068746;28;20612;-61
2022/01/10 11:25:25;;;;;;;8.37;5.77;;;;;;;;;;5084841;28;20213;-63
2022/01/10 11:27:57;;;;;;;11.17;6.30;;;;;;;;;;5099016;27;20239;-62
2022/01/10 11:30:28;;;;;;;8.70;6.70;;;;;;;;;;5068051;28;20706;-61
2022/01/10 11:33:06;;;;;;;18.43;9.80;;;;;;;;;;5099858;27;20208;-62
2022/01/10 11:35:51;;;;;;;28.33;12.43;;;;;;;;;;5068533;28;20284;-61
2022/01/10 11:38:21;;;;;;;19.90;11.20;;;;;;;;;;5065906;28;20220;-63
2022/01/10 11:40:49;;;;;;;10.10;7.10;;;;;;;;;;5068724;28;20205;-63
2022/01/10 11:43:33;;;;;;;12.80;7.90;;;;;;;;;;5057629;28;20213;-63
2022/01/10 11:46:13;;;;;;;9.27;7.07;;;;;;;;;;5070057;28;20201;-62
2022/01/10 11:48:54;;;;;;;9.27;6.87;;;;;;;;;;5078112;28;20224;-62
2022/01/10 11:51:24;;;;;;;12.30;6.67;;;;;;;;;;5059145;28;20208;-61
2022/01/10 11:53:53;;;;;;;10.60;7.33;;;;;;;;;;5067594;28;20246;-63
2022/01/10 11:56:23;;;;;;;17.93;10.33;;;;;;;;;;5097768;27;20652;-62
2022/01/10 11:59:09;;;;;;;13.00;8.43;;;;;;;;;;5059613;28;20213;-62
2022/01/10 12:01:38;;;;;;;14.53;7.43;;;;;;;;;;5065269;28;20303;-61
2022/01/10 12:04:05;;;;;;;11.30;7.40;;;;;;;;;;5093692;27;20295;-63
2022/01/10 12:06:33;;;;;;;13.63;8.70;;;;;;;;;;5099057;27;20212;-63
2022/01/10 12:09:01;;;;;;;11.80;7.40;;;;;;;;;;5069937;28;20217;-63
2022/01/10 12:11:29;;;;;;;11.07;7.43;;;;;;;;;;5062792;28;20208;-63
2022/01/10 12:13:58;;;;;;;10.87;7.50;;;;;;;;;;5065235;28;20197;-63
2022/01/10 12:16:26;;;;;;;12.60;7.80;;;;;;;;;;5097672;27;20381;-63
2022/01/10 12:18:55;;;;;;;9.87;7.83;;;;;;;;;;5072678;28;20205;-61
2022/01/10 12:21:23;;;;;;;10.80;8.07;;;;;;;;;;5081741;27;20213;-63
2022/01/10 12:23:52;;;;;;;9.20;7.27;;;;;;;;;;5067277;28;20197;-62
2022/01/10 12:26:20;;;;;;;8.80;6.80;;;;;;;;;;5060249;28;20205;-61
2022/01/10 12:28:52;;;;;;;10.10;7.70;;;;;;;;;;5079694;28;20224;-62
2022/01/10 12:31:23;;;;;;;11.83;8.27;;;;;;;;;;5073280;28;20220;-62
2022/01/10 12:33:51;;;;;;;13.10;8.17;;;;;;;;;;5099612;27;20733;-62
2022/01/10 12:36:19;;;;;;;13.70;8.13;;;;;;;;;;5082747;28;20196;-61
2022/01/10 12:38:55;;;;;;;9.90;7.23;;;;;;;;;;5080938;28;20197;-62
2022/01/10 12:41:22;;;;;;;11.43;7.80;;;;;;;;;;5101621;27;20247;-61
2022/01/10 12:43:49;;;;;;;16.00;8.30;;;;;;;;;;5096450;27;20213;-62
2022/01/10 12:46:18;;;;;;;12.67;8.83;;;;;;;;;;5069814;28;20573;-62
2022/01/10 12:48:46;;;;;;;13.63;8.53;;;;;;;;;;5067490;28;20309;-61
2022/01/10 12:51:14;;;;;;;14.57;7.80;;;;;;;;;;5082883;27;20205;-61
2022/01/10 12:54:01;;;;;;;11.53;7.17;;;;;;;;;;5069235;28;20284;-62
2022/01/10 12:56:28;;;;;;;12.20;8.00;;;;;;;;;;5081246;28;20205;-62
2022/01/10 12:58:56;;;;;;;11.33;7.33;;;;;;;;;;5074863;28;20201;-63
2022/01/10 13:01:23;;;;;;;13.23;8.67;;;;;;;;;;5067985;28;20574;-63
2022/01/10 13:03:56;;;;;;;13.37;8.87;;;;;;;;;;5075815;28;20208;-61
2022/01/10 13:06:26;;;;;;;16.20;10.23;;;;;;;;;;5057000;28;20603;-61
2022/01/10 13:08:54;;;;;;;13.50;8.20;;;;;;;;;;5077014;28;20216;-62
2022/01/10 13:11:23;;;;;;;9.50;6.80;;;;;;;;;;5062799;28;20647;-62
2022/01/10 13:13:50;;;;;;;9.40;6.83;;;;;;;;;;5099049;27;20331;-63
2022/01/10 13:16:21;;;;;;;9.60;7.13;;;;;;;;;;5093576;28;20639;-61
2022/01/10 13:18:56;;;;;;;10.00;6.23;;;;;;;;;;5068894;28;20208;-62
2022/01/10 13:21:52;;;;;;;8.80;6.37;;;;;;;;;;5060282;28;20292;-62
2022/01/10 13:24:21;;;;;;;11.03;6.47;;;;;;;;;;5058797;28;20266;-62
2022/01/10 13:27:06;;;;;;;8.60;5.90;;;;;;;;;;5069919;28;20250;-61
2022/01/10 13:29:35;;;;;;;8.77;6.40;;;;;;;;;;5085213;28;20223;-61
2022/01/10 13:32:15;;;;;;;9.63;6.43;;;;;;;;;;5081299;28;20197;-63
2022/01/10 13:34:43;;;;;;;12.37;6.53;;;;;;;;;;5064298;28;20204;-61
2022/01/10 13:37:10;;;;;;;13.40;7.50;;;;;;;;;;5071124;28;20222;-61
2022/01/10 13:39:38;;;;;;;12.93;7.60;;;;;;;;;;5061837;28;20212;-63
2022/01/10 13:42:07;;;;;;;10.13;6.97;;;;;;;;;;5095980;28;20208;-61
2022/01/10 13:44:53;;;;;;;12.30;7.03;;;;;;;;;;5063004;28;20205;-62
2022/01/10 13:47:21;;;;;;;11.43;7.53;;;;;;;;;;5070373;28;20232;-61
2022/01/10 13:49:49;;;;;;;12.27;8.23;;;;;;;;;;5098092;27;20511;-63
2022/01/10 13:52:17;;;;;;;13.33;8.57;;;;;;;;;;5092495;27;20201;-61
2022/01/10 13:54:46;;;;;;;14.47;10.30;;;;;;;;;;5109843;27;20254;-62
2022/01/10 13:57:16;;;;;;;18.53;10.10;;;;;;;;;;5100110;27;20228;-62
2022/01/10 13:59:44;;;;;;;18.43;10.13;;;;;;;;;;5099052;27;20617;-62
2022/01/10 14:02:15;;;;;;;17.07;9.27;;;;;;;;;;5078489;28;20608;-61
2022/01/10 14:04:44;;;;;;;14.07;7.93;;;;;;;;;;5063465;28;20213;-62
2022/01/10 14:07:17;;;;;;;14.23;9.00;;;;;;;;;;5070635;28;20247;-62
2022/01/10 14:09:45;;;;;;;11.63;7.03;;;;;;;;;;5072927;28;20235;-61
2022/01/10 14:12:17;;;;;;;11.93;7.23;;;;;;;;;;5066926;28;20639;-61
2022/01/10 14:14:45;;;;;;;10.83;7.10;;;;;;;;;;5075646;28;20194;-61
2022/01/10 14:17:12;;;;;;;9.37;6.23;;;;;;;;;;5064676;28;20224;-61
2022/01/10 14:19:42;;;;;;;10.13;6.93;;;;;;;;;;5079388;28;20200;-61
2022/01/10 14:22:10;;;;;;;9.00;6.63;;;;;;;;;;5072679;28;20309;-63
2022/01/10 14:24:37;;;;;;;12.70;8.07;;;;;;;;;;5060986;28;20704;-62
2022/01/10 14:27:05;;;;;;;15.23;7.97;;;;;;;;;;5096868;27;20632;-62
2022/01/10 14:29:32;;;;;;;15.00;9.83;;;;;;;;;;5075018;28;20232;-62
2022/01/10 14:32:00;;;;;;;17.17;8.43;;;;;;;;;;5070318;28;20201;-61
2022/01/10 14:34:27;;;;;;;15.13;9.30;;;;;;;;;;5064962;28;20204;-61
2022/01/10 14:36:54;;;;;;;11.10;8.50;;;;;;;;;;5103087;27;20221;-62
2022/01/10 14:39:22;;;;;;;12.10;8.00;;;;;;;;;;5098447;28;20209;-61
2022/01/10 14:41:49;;;;;;;12.07;8.60;;;;;;;;;;5065195;28;20208;-62
2022/01/10 14:44:18;;;;;;;12.53;8.40;;;;;;;;;;5072703;28;20209;-63
2022/01/10 14:46:46;;;;;;;11.93;8.27;;;;;;;;;;5100183;28;20270;-63
2022/01/10 14:49:13;;;;;;;16.03;9.37;;;;;;;;;;5110024;27;20221;-62
2022/01/10 14:51:41;;;;;;;26.33;16.37;;;;;;;;;;5073933;28;20209;-63
2022/01/10 14:54:08;;;;;;;14.53;8.80;;;;;;;;;;5073746;28;20266;-61
2022/01/10 14:56:36;;;;;;;16.27;9.13;;;;;;;;;;5078052;28;20256;-61